sensor_id;sensor_type;location;lat;lon;timestamp;P1;durP1;ratioP1;P2;durP2;ratioP2
16352;SDS011;8286;51.274;9.542;2022-12-18T00:01:33;25.70;;;11.47;;
16352;SDS011;8286;51.274;9.542;2022-12-18T00:04:02;29.87;;;11.17;;
16352;SDS011;8286;51.274;9.542;2022-12-18T00:06:33;23.57;;;11.03;;
16352;SDS011;8286;51.274;9.542;2022-12-18T00:09:02;28.37;;;12.20;;
16352;SDS011;8286;51.274;9.542;2022-12-18T00:11:29;26.90;;;10.70;;
16352;SDS011;8286;51.274;9.542;2022-12-18T00:13:57;22.23;;;9.27;;
16352;SDS011;8286;51.274;9.542;2022-12-18T00:16:25;25.40;;;11.40;;
16352;SDS011;8286;51.274;9.542;2022-12-18T00:18:53;28.90;;;12.00;;
16352;SDS011;8286;51.274;9.542;2022-12-18T00:21:24;26.47;;;10.97;;
16352;SDS011;8286;51.274;9.542;2022-12-18T00:23:50;22.70;;;9.93;;
16352;SDS011;8286;51.274;9.542;2022-12-18T00:26:19;21.97;;;10.00;;
16352;SDS011;8286;51.274;9.542;2022-12-18T00:28:47;24.30;;;12.40;;
16352;SDS011;8286;51.274;9.542;2022-12-18T00:31:15;33.73;;;13.27;;
16352;SDS011;8286;51.274;9.542;2022-12-18T00:33:43;34.07;;;11.33;;
16352;SDS011;8286;51.274;9.542;2022-12-18T00:36:11;21.80;;;11.80;;
16352;SDS011;8286;51.274;9.542;2022-12-18T00:38:39;24.50;;;11.40;;
16352;SDS011;8286;51.274;9.542;2022-12-18T00:41:06;21.30;;;10.10;;
16352;SDS011;8286;51.274;9.542;2022-12-18T00:43:35;21.73;;;10.27;;
16352;SDS011;8286;51.274;9.542;2022-12-18T00:46:01;23.60;;;10.87;;
16352;SDS011;8286;51.274;9.542;2022-12-18T00:48:28;27.17;;;10.03;;
16352;SDS011;8286;51.274;9.542;2022-12-18T00:50:54;18.17;;;10.37;;
16352;SDS011;8286;51.274;9.542;2022-12-18T00:53:21;24.27;;;10.57;;
16352;SDS011;8286;51.274;9.542;2022-12-18T00:55:48;20.40;;;10.13;;
16352;SDS011;8286;51.274;9.542;2022-12-18T00:58:15;20.47;;;10.33;;
16352;SDS011;8286;51.274;9.542;2022-12-18T01:00:44;25.83;;;10.90;;
16352;SDS011;8286;51.274;9.542;2022-12-18T01:03:11;25.33;;;10.90;;
16352;SDS011;8286;51.274;9.542;2022-12-18T01:05:39;23.07;;;11.07;;
16352;SDS011;8286;51.274;9.542;2022-12-18T01:08:06;21.47;;;9.57;;
16352;SDS011;8286;51.274;9.542;2022-12-18T01:10:33;25.10;;;11.73;;
16352;SDS011;8286;51.274;9.542;2022-12-18T01:13:00;21.93;;;11.07;;
16352;SDS011;8286;51.274;9.542;2022-12-18T01:15:27;26.70;;;10.17;;
16352;SDS011;8286;51.274;9.542;2022-12-18T01:17:55;17.47;;;9.73;;
16352;SDS011;8286;51.274;9.542;2022-12-18T01:20:21;23.30;;;12.00;;
16352;SDS011;8286;51.274;9.542;2022-12-18T01:22:48;17.00;;;9.60;;
16352;SDS011;8286;51.274;9.542;2022-12-18T01:25:14;20.87;;;9.40;;
16352;SDS011;8286;51.274;9.542;2022-12-18T01:27:41;28.97;;;12.50;;
16352;SDS011;8286;51.274;9.542;2022-12-18T01:30:08;22.03;;;10.00;;
16352;SDS011;8286;51.274;9.542;2022-12-18T01:32:36;22.33;;;9.77;;
16352;SDS011;8286;51.274;9.542;2022-12-18T01:35:04;25.57;;;10.87;;
16352;SDS011;8286;51.274;9.542;2022-12-18T01:37:32;18.07;;;8.60;;
16352;SDS011;8286;51.274;9.542;2022-12-18T01:39:58;22.00;;;10.23;;
16352;SDS011;8286;51.274;9.542;2022-12-18T01:42:25;19.97;;;10.27;;
16352;SDS011;8286;51.274;9.542;2022-12-18T01:44:56;21.07;;;9.90;;
16352;SDS011;8286;51.274;9.542;2022-12-18T01:47:26;28.83;;;11.40;;
16352;SDS011;8286;51.274;9.542;2022-12-18T01:49:55;18.60;;;9.23;;
16352;SDS011;8286;51.274;9.542;2022-12-18T01:52:23;22.67;;;9.77;;
16352;SDS011;8286;51.274;9.542;2022-12-18T01:54:51;27.10;;;9.43;;
16352;SDS011;8286;51.274;9.542;2022-12-18T01:57:18;23.00;;;11.57;;
16352;SDS011;8286;51.274;9.542;2022-12-18T01:59:45;16.63;;;9.33;;
16352;SDS011;8286;51.274;9.542;2022-12-18T02:02:15;21.00;;;9.57;;
16352;SDS011;8286;51.274;9.542;2022-12-18T02:04:43;25.60;;;10.83;;
16352;SDS011;8286;51.274;9.542;2022-12-18T02:07:11;20.20;;;9.57;;
16352;SDS011;8286;51.274;9.542;2022-12-18T02:09:45;23.27;;;8.67;;
16352;SDS011;8286;51.274;9.542;2022-12-18T02:12:15;20.53;;;8.90;;
16352;SDS011;8286;51.274;9.542;2022-12-18T02:14:44;14.20;;;9.43;;
16352;SDS011;8286;51.274;9.542;2022-12-18T02:17:14;19.83;;;9.03;;
16352;SDS011;8286;51.274;9.542;2022-12-18T02:19:45;24.50;;;10.97;;
16352;SDS011;8286;51.274;9.542;2022-12-18T02:22:20;18.40;;;9.10;;
16352;SDS011;8286;51.274;9.542;2022-12-18T02:24:57;26.00;;;9.77;;
16352;SDS011;8286;51.274;9.542;2022-12-18T02:27:29;17.37;;;10.27;;
16352;SDS011;8286;51.274;9.542;2022-12-18T02:29:56;14.53;;;8.20;;
16352;SDS011;8286;51.274;9.542;2022-12-18T02:32:24;19.20;;;8.50;;
16352;SDS011;8286;51.274;9.542;2022-12-18T02:34:53;13.63;;;9.47;;
16352;SDS011;8286;51.274;9.542;2022-12-18T02:37:22;22.80;;;10.27;;
16352;SDS011;8286;51.274;9.542;2022-12-18T02:39:49;21.00;;;9.30;;
16352;SDS011;8286;51.274;9.542;2022-12-18T02:42:19;15.03;;;8.87;;
16352;SDS011;8286;51.274;9.542;2022-12-18T02:44:48;11.87;;;7.87;;
16352;SDS011;8286;51.274;9.542;2022-12-18T02:47:16;17.87;;;8.37;;
16352;SDS011;8286;51.274;9.542;2022-12-18T02:49:44;18.27;;;8.17;;
16352;SDS011;8286;51.274;9.542;2022-12-18T02:52:17;11.87;;;6.77;;
16352;SDS011;8286;51.274;9.542;2022-12-18T02:54:59;9.97;;;7.70;;
16352;SDS011;8286;51.274;9.542;2022-12-18T02:57:33;18.07;;;8.80;;
16352;SDS011;8286;51.274;9.542;2022-12-18T03:00:04;17.03;;;9.60;;
16352;SDS011;8286;51.274;9.542;2022-12-18T03:02:35;24.73;;;8.77;;
16352;SDS011;8286;51.274;9.542;2022-12-18T03:05:07;11.50;;;7.50;;
16352;SDS011;8286;51.274;9.542;2022-12-18T03:07:37;11.40;;;6.63;;
16352;SDS011;8286;51.274;9.542;2022-12-18T03:10:09;15.63;;;8.53;;
16352;SDS011;8286;51.274;9.542;2022-12-18T03:12:40;10.60;;;5.83;;
16352;SDS011;8286;51.274;9.542;2022-12-18T03:15:12;10.67;;;7.30;;
16352;SDS011;8286;51.274;9.542;2022-12-18T03:17:41;11.33;;;5.93;;
16352;SDS011;8286;51.274;9.542;2022-12-18T03:20:12;9.50;;;6.53;;
16352;SDS011;8286;51.274;9.542;2022-12-18T03:22:39;13.53;;;6.27;;
16352;SDS011;8286;51.274;9.542;2022-12-18T03:25:09;12.47;;;6.63;;
16352;SDS011;8286;51.274;9.542;2022-12-18T03:27:38;9.87;;;5.97;;
16352;SDS011;8286;51.274;9.542;2022-12-18T03:30:09;15.23;;;7.27;;
16352;SDS011;8286;51.274;9.542;2022-12-18T03:32:39;9.70;;;6.50;;
16352;SDS011;8286;51.274;9.542;2022-12-18T03:35:09;9.67;;;6.93;;
16352;SDS011;8286;51.274;9.542;2022-12-18T03:37:38;12.47;;;6.33;;
16352;SDS011;8286;51.274;9.542;2022-12-18T03:40:05;12.43;;;6.13;;
16352;SDS011;8286;51.274;9.542;2022-12-18T03:42:33;10.50;;;6.47;;
16352;SDS011;8286;51.274;9.542;2022-12-18T03:45:06;12.87;;;6.73;;
16352;SDS011;8286;51.274;9.542;2022-12-18T03:47:38;12.17;;;6.30;;
16352;SDS011;8286;51.274;9.542;2022-12-18T03:50:10;12.60;;;6.20;;
16352;SDS011;8286;51.274;9.542;2022-12-18T03:52:40;33.33;;;11.83;;
16352;SDS011;8286;51.274;9.542;2022-12-18T03:55:10;11.67;;;6.33;;
16352;SDS011;8286;51.274;9.542;2022-12-18T03:57:37;5.30;;;4.57;;
16352;SDS011;8286;51.274;9.542;2022-12-18T04:00:05;10.87;;;6.20;;
16352;SDS011;8286;51.274;9.542;2022-12-18T04:02:34;8.67;;;5.47;;
16352;SDS011;8286;51.274;9.542;2022-12-18T04:05:03;10.37;;;6.93;;
16352;SDS011;8286;51.274;9.542;2022-12-18T04:07:31;13.37;;;5.83;;
16352;SDS011;8286;51.274;9.542;2022-12-18T04:09:58;10.70;;;7.57;;
16352;SDS011;8286;51.274;9.542;2022-12-18T04:12:28;11.57;;;6.63;;
16352;SDS011;8286;51.274;9.542;2022-12-18T04:14:56;10.60;;;5.20;;
16352;SDS011;8286;51.274;9.542;2022-12-18T04:17:22;14.17;;;6.20;;
16352;SDS011;8286;51.274;9.542;2022-12-18T04:19:50;12.53;;;6.27;;
16352;SDS011;8286;51.274;9.542;2022-12-18T04:22:17;14.13;;;7.40;;
16352;SDS011;8286;51.274;9.542;2022-12-18T04:24:43;10.50;;;5.37;;
16352;SDS011;8286;51.274;9.542;2022-12-18T04:27:10;9.57;;;5.73;;
16352;SDS011;8286;51.274;9.542;2022-12-18T04:29:37;6.73;;;5.07;;
16352;SDS011;8286;51.274;9.542;2022-12-18T04:32:04;6.90;;;5.50;;
16352;SDS011;8286;51.274;9.542;2022-12-18T04:34:31;8.43;;;5.80;;
16352;SDS011;8286;51.274;9.542;2022-12-18T04:36:58;11.03;;;6.00;;
16352;SDS011;8286;51.274;9.542;2022-12-18T04:39:25;7.90;;;5.90;;
16352;SDS011;8286;51.274;9.542;2022-12-18T04:41:52;7.97;;;5.63;;
16352;SDS011;8286;51.274;9.542;2022-12-18T04:44:18;9.37;;;5.57;;
16352;SDS011;8286;51.274;9.542;2022-12-18T04:46:45;10.90;;;5.20;;
16352;SDS011;8286;51.274;9.542;2022-12-18T04:49:12;8.53;;;4.90;;
16352;SDS011;8286;51.274;9.542;2022-12-18T04:51:38;8.50;;;5.60;;
16352;SDS011;8286;51.274;9.542;2022-12-18T04:54:06;12.60;;;5.90;;
16352;SDS011;8286;51.274;9.542;2022-12-18T04:56:33;7.03;;;4.90;;
16352;SDS011;8286;51.274;9.542;2022-12-18T04:58:59;7.60;;;5.63;;
16352;SDS011;8286;51.274;9.542;2022-12-18T05:01:26;4.27;;;3.80;;
16352;SDS011;8286;51.274;9.542;2022-12-18T05:03:53;10.97;;;5.27;;
16352;SDS011;8286;51.274;9.542;2022-12-18T05:06:19;7.60;;;5.10;;
16352;SDS011;8286;51.274;9.542;2022-12-18T05:08:46;10.27;;;6.10;;
16352;SDS011;8286;51.274;9.542;2022-12-18T05:11:14;9.97;;;4.57;;
16352;SDS011;8286;51.274;9.542;2022-12-18T05:13:41;11.03;;;4.10;;
16352;SDS011;8286;51.274;9.542;2022-12-18T05:16:08;8.43;;;4.27;;
16352;SDS011;8286;51.274;9.542;2022-12-18T05:18:35;11.47;;;5.47;;
16352;SDS011;8286;51.274;9.542;2022-12-18T05:21:03;11.40;;;4.73;;
16352;SDS011;8286;51.274;9.542;2022-12-18T05:23:30;9.57;;;5.50;;
16352;SDS011;8286;51.274;9.542;2022-12-18T05:25:57;10.27;;;5.00;;
16352;SDS011;8286;51.274;9.542;2022-12-18T05:28:27;8.70;;;5.30;;
16352;SDS011;8286;51.274;9.542;2022-12-18T05:30:55;7.87;;;5.23;;
16352;SDS011;8286;51.274;9.542;2022-12-18T05:33:24;12.40;;;6.03;;
16352;SDS011;8286;51.274;9.542;2022-12-18T05:35:52;9.70;;;5.13;;
16352;SDS011;8286;51.274;9.542;2022-12-18T05:38:20;11.47;;;5.93;;
16352;SDS011;8286;51.274;9.542;2022-12-18T05:40:47;15.53;;;5.73;;
16352;SDS011;8286;51.274;9.542;2022-12-18T05:43:14;13.53;;;6.40;;
16352;SDS011;8286;51.274;9.542;2022-12-18T05:45:42;10.13;;;6.50;;
16352;SDS011;8286;51.274;9.542;2022-12-18T05:48:09;8.80;;;5.57;;
16352;SDS011;8286;51.274;9.542;2022-12-18T05:50:39;12.37;;;6.23;;
16352;SDS011;8286;51.274;9.542;2022-12-18T05:53:06;7.57;;;5.10;;
16352;SDS011;8286;51.274;9.542;2022-12-18T05:55:33;9.23;;;4.17;;
16352;SDS011;8286;51.274;9.542;2022-12-18T05:58:00;11.50;;;5.93;;
16352;SDS011;8286;51.274;9.542;2022-12-18T06:00:27;10.93;;;5.37;;
16352;SDS011;8286;51.274;9.542;2022-12-18T06:02:55;7.77;;;5.80;;
16352;SDS011;8286;51.274;9.542;2022-12-18T06:05:22;11.30;;;5.70;;
16352;SDS011;8286;51.274;9.542;2022-12-18T06:07:48;6.63;;;5.90;;
16352;SDS011;8286;51.274;9.542;2022-12-18T06:10:15;9.13;;;5.13;;
16352;SDS011;8286;51.274;9.542;2022-12-18T06:12:41;8.77;;;5.37;;
16352;SDS011;8286;51.274;9.542;2022-12-18T06:15:08;11.50;;;5.63;;
16352;SDS011;8286;51.274;9.542;2022-12-18T06:17:36;7.53;;;5.87;;
16352;SDS011;8286;51.274;9.542;2022-12-18T06:20:04;10.33;;;5.07;;
16352;SDS011;8286;51.274;9.542;2022-12-18T06:22:32;12.90;;;6.23;;
16352;SDS011;8286;51.274;9.542;2022-12-18T06:24:58;14.87;;;5.47;;
16352;SDS011;8286;51.274;9.542;2022-12-18T06:27:25;9.33;;;6.20;;
16352;SDS011;8286;51.274;9.542;2022-12-18T06:29:51;12.23;;;5.40;;
16352;SDS011;8286;51.274;9.542;2022-12-18T06:32:18;10.37;;;5.23;;
16352;SDS011;8286;51.274;9.542;2022-12-18T06:34:44;10.40;;;5.07;;
16352;SDS011;8286;51.274;9.542;2022-12-18T06:37:12;10.77;;;4.93;;
16352;SDS011;8286;51.274;9.542;2022-12-18T06:39:39;6.60;;;4.37;;
16352;SDS011;8286;51.274;9.542;2022-12-18T06:42:05;10.83;;;5.37;;
16352;SDS011;8286;51.274;9.542;2022-12-18T06:44:32;11.60;;;4.83;;
16352;SDS011;8286;51.274;9.542;2022-12-18T06:46:58;7.77;;;4.33;;
16352;SDS011;8286;51.274;9.542;2022-12-18T06:49:25;15.27;;;6.20;;
16352;SDS011;8286;51.274;9.542;2022-12-18T06:51:52;10.17;;;5.50;;
16352;SDS011;8286;51.274;9.542;2022-12-18T06:54:20;9.03;;;6.00;;
16352;SDS011;8286;51.274;9.542;2022-12-18T06:56:46;9.00;;;4.97;;
16352;SDS011;8286;51.274;9.542;2022-12-18T06:59:13;10.53;;;4.97;;
16352;SDS011;8286;51.274;9.542;2022-12-18T07:01:39;11.23;;;5.13;;
16352;SDS011;8286;51.274;9.542;2022-12-18T07:04:06;10.17;;;6.20;;
16352;SDS011;8286;51.274;9.542;2022-12-18T07:06:32;5.27;;;4.03;;
16352;SDS011;8286;51.274;9.542;2022-12-18T07:08:59;8.33;;;5.43;;
16352;SDS011;8286;51.274;9.542;2022-12-18T07:11:27;11.30;;;6.63;;
16352;SDS011;8286;51.274;9.542;2022-12-18T07:13:53;6.70;;;5.87;;
16352;SDS011;8286;51.274;9.542;2022-12-18T07:16:20;9.77;;;5.67;;
16352;SDS011;8286;51.274;9.542;2022-12-18T07:18:47;16.23;;;6.47;;
16352;SDS011;8286;51.274;9.542;2022-12-18T07:21:14;7.43;;;5.43;;
16352;SDS011;8286;51.274;9.542;2022-12-18T07:23:42;13.37;;;6.63;;
16352;SDS011;8286;51.274;9.542;2022-12-18T07:26:10;9.10;;;6.57;;
16352;SDS011;8286;51.274;9.542;2022-12-18T07:28:39;6.63;;;4.37;;
16352;SDS011;8286;51.274;9.542;2022-12-18T07:31:08;8.80;;;6.27;;
16352;SDS011;8286;51.274;9.542;2022-12-18T07:33:35;16.93;;;6.50;;
16352;SDS011;8286;51.274;9.542;2022-12-18T07:36:02;18.97;;;8.03;;
16352;SDS011;8286;51.274;9.542;2022-12-18T07:38:30;18.10;;;5.67;;
16352;SDS011;8286;51.274;9.542;2022-12-18T07:40:59;13.10;;;7.67;;
16352;SDS011;8286;51.274;9.542;2022-12-18T07:43:26;11.10;;;6.30;;
16352;SDS011;8286;51.274;9.542;2022-12-18T07:45:54;7.23;;;5.43;;
16352;SDS011;8286;51.274;9.542;2022-12-18T07:48:21;8.40;;;5.00;;
16352;SDS011;8286;51.274;9.542;2022-12-18T07:50:47;11.50;;;6.63;;
16352;SDS011;8286;51.274;9.542;2022-12-18T07:53:14;7.00;;;5.47;;
16352;SDS011;8286;51.274;9.542;2022-12-18T07:55:41;8.70;;;5.57;;
16352;SDS011;8286;51.274;9.542;2022-12-18T07:58:07;9.57;;;5.80;;
16352;SDS011;8286;51.274;9.542;2022-12-18T08:00:34;6.67;;;3.97;;
16352;SDS011;8286;51.274;9.542;2022-12-18T08:03:02;15.37;;;6.17;;
16352;SDS011;8286;51.274;9.542;2022-12-18T08:05:29;10.33;;;7.30;;
16352;SDS011;8286;51.274;9.542;2022-12-18T08:07:55;9.83;;;6.07;;
16352;SDS011;8286;51.274;9.542;2022-12-18T08:10:22;12.60;;;7.57;;
16352;SDS011;8286;51.274;9.542;2022-12-18T08:12:49;11.33;;;6.03;;
16352;SDS011;8286;51.274;9.542;2022-12-18T08:15:16;14.00;;;7.63;;
16352;SDS011;8286;51.274;9.542;2022-12-18T08:17:43;14.87;;;6.33;;
16352;SDS011;8286;51.274;9.542;2022-12-18T08:20:11;16.33;;;6.40;;
16352;SDS011;8286;51.274;9.542;2022-12-18T08:22:38;6.80;;;5.63;;
16352;SDS011;8286;51.274;9.542;2022-12-18T08:25:06;12.03;;;6.10;;
16352;SDS011;8286;51.274;9.542;2022-12-18T08:27:33;11.30;;;7.17;;
16352;SDS011;8286;51.274;9.542;2022-12-18T08:30:00;16.03;;;9.30;;
16352;SDS011;8286;51.274;9.542;2022-12-18T08:32:27;19.97;;;8.97;;
16352;SDS011;8286;51.274;9.542;2022-12-18T08:34:54;16.67;;;9.40;;
16352;SDS011;8286;51.274;9.542;2022-12-18T08:37:21;16.20;;;8.23;;
16352;SDS011;8286;51.274;9.542;2022-12-18T08:39:48;18.47;;;10.07;;
16352;SDS011;8286;51.274;9.542;2022-12-18T08:42:15;15.20;;;8.47;;
16352;SDS011;8286;51.274;9.542;2022-12-18T08:45:00;14.30;;;7.50;;
16352;SDS011;8286;51.274;9.542;2022-12-18T08:47:26;13.87;;;8.07;;
16352;SDS011;8286;51.274;9.542;2022-12-18T08:49:53;14.33;;;7.57;;
16352;SDS011;8286;51.274;9.542;2022-12-18T08:52:19;18.80;;;8.70;;
16352;SDS011;8286;51.274;9.542;2022-12-18T08:54:47;17.33;;;8.63;;
16352;SDS011;8286;51.274;9.542;2022-12-18T08:57:14;14.60;;;8.17;;
16352;SDS011;8286;51.274;9.542;2022-12-18T08:59:41;22.77;;;8.77;;
16352;SDS011;8286;51.274;9.542;2022-12-18T09:02:08;15.87;;;8.40;;
16352;SDS011;8286;51.274;9.542;2022-12-18T09:04:35;15.30;;;8.23;;
16352;SDS011;8286;51.274;9.542;2022-12-18T09:07:02;13.17;;;7.37;;
16352;SDS011;8286;51.274;9.542;2022-12-18T09:09:30;18.50;;;9.63;;
16352;SDS011;8286;51.274;9.542;2022-12-18T09:11:57;18.83;;;9.60;;
16352;SDS011;8286;51.274;9.542;2022-12-18T09:14:24;19.47;;;9.10;;
16352;SDS011;8286;51.274;9.542;2022-12-18T09:16:51;12.87;;;6.90;;
16352;SDS011;8286;51.274;9.542;2022-12-18T09:19:17;14.27;;;7.57;;
16352;SDS011;8286;51.274;9.542;2022-12-18T09:21:44;15.20;;;7.93;;
16352;SDS011;8286;51.274;9.542;2022-12-18T09:24:11;16.63;;;8.47;;
16352;SDS011;8286;51.274;9.542;2022-12-18T09:26:40;16.07;;;8.27;;
16352;SDS011;8286;51.274;9.542;2022-12-18T09:29:07;15.00;;;8.60;;
16352;SDS011;8286;51.274;9.542;2022-12-18T09:31:34;12.90;;;7.53;;
16352;SDS011;8286;51.274;9.542;2022-12-18T09:34:01;15.77;;;8.30;;
16352;SDS011;8286;51.274;9.542;2022-12-18T09:36:27;15.80;;;8.10;;
16352;SDS011;8286;51.274;9.542;2022-12-18T09:38:54;17.10;;;8.27;;
16352;SDS011;8286;51.274;9.542;2022-12-18T09:41:31;15.77;;;8.27;;
16352;SDS011;8286;51.274;9.542;2022-12-18T09:44:09;14.57;;;8.47;;
16352;SDS011;8286;51.274;9.542;2022-12-18T09:46:41;13.43;;;8.20;;
16352;SDS011;8286;51.274;9.542;2022-12-18T09:49:12;19.00;;;7.77;;
16352;SDS011;8286;51.274;9.542;2022-12-18T09:51:41;18.63;;;9.03;;
16352;SDS011;8286;51.274;9.542;2022-12-18T09:54:11;19.80;;;8.30;;
16352;SDS011;8286;51.274;9.542;2022-12-18T09:56:41;16.57;;;8.53;;
16352;SDS011;8286;51.274;9.542;2022-12-18T09:59:14;17.53;;;9.47;;
16352;SDS011;8286;51.274;9.542;2022-12-18T10:01:44;22.20;;;8.90;;
16352;SDS011;8286;51.274;9.542;2022-12-18T10:04:11;19.57;;;9.27;;
16352;SDS011;8286;51.274;9.542;2022-12-18T10:06:39;18.10;;;9.30;;
16352;SDS011;8286;51.274;9.542;2022-12-18T10:09:09;15.90;;;8.33;;
16352;SDS011;8286;51.274;9.542;2022-12-18T10:11:43;18.23;;;9.27;;
16352;SDS011;8286;51.274;9.542;2022-12-18T10:14:19;20.23;;;10.13;;
16352;SDS011;8286;51.274;9.542;2022-12-18T10:16:52;18.33;;;9.63;;
16352;SDS011;8286;51.274;9.542;2022-12-18T10:19:33;17.97;;;7.63;;
16352;SDS011;8286;51.274;9.542;2022-12-18T10:22:08;15.50;;;9.10;;
16352;SDS011;8286;51.274;9.542;2022-12-18T10:24:41;19.00;;;8.87;;
16352;SDS011;8286;51.274;9.542;2022-12-18T10:27:12;16.43;;;8.53;;
16352;SDS011;8286;51.274;9.542;2022-12-18T10:29:43;16.90;;;8.80;;
16352;SDS011;8286;51.274;9.542;2022-12-18T10:32:13;16.50;;;8.63;;
16352;SDS011;8286;51.274;9.542;2022-12-18T10:34:41;16.63;;;8.17;;
16352;SDS011;8286;51.274;9.542;2022-12-18T10:37:09;17.27;;;9.97;;
16352;SDS011;8286;51.274;9.542;2022-12-18T10:39:39;19.13;;;9.83;;
16352;SDS011;8286;51.274;9.542;2022-12-18T10:42:09;20.93;;;9.07;;
16352;SDS011;8286;51.274;9.542;2022-12-18T10:44:38;20.40;;;9.40;;
16352;SDS011;8286;51.274;9.542;2022-12-18T10:47:06;20.03;;;9.97;;
16352;SDS011;8286;51.274;9.542;2022-12-18T10:49:40;23.93;;;9.80;;
16352;SDS011;8286;51.274;9.542;2022-12-18T10:52:13;23.50;;;10.93;;
16352;SDS011;8286;51.274;9.542;2022-12-18T10:54:45;25.43;;;9.67;;
16352;SDS011;8286;51.274;9.542;2022-12-18T10:57:14;20.13;;;10.10;;
16352;SDS011;8286;51.274;9.542;2022-12-18T10:59:49;25.80;;;10.10;;
16352;SDS011;8286;51.274;9.542;2022-12-18T11:02:26;27.73;;;9.43;;
16352;SDS011;8286;51.274;9.542;2022-12-18T11:05:02;21.67;;;9.37;;
16352;SDS011;8286;51.274;9.542;2022-12-18T11:07:46;20.80;;;8.93;;
16352;SDS011;8286;51.274;9.542;2022-12-18T11:10:19;20.97;;;9.23;;
16352;SDS011;8286;51.274;9.542;2022-12-18T11:12:46;19.27;;;8.50;;
16352;SDS011;8286;51.274;9.542;2022-12-18T11:15:15;17.53;;;8.77;;
16352;SDS011;8286;51.274;9.542;2022-12-18T11:17:44;21.47;;;9.90;;
16352;SDS011;8286;51.274;9.542;2022-12-18T11:20:19;20.83;;;9.13;;
16352;SDS011;8286;51.274;9.542;2022-12-18T11:22:54;21.30;;;10.60;;
16352;SDS011;8286;51.274;9.542;2022-12-18T11:25:22;16.40;;;8.77;;
16352;SDS011;8286;51.274;9.542;2022-12-18T11:27:49;20.70;;;9.97;;
16352;SDS011;8286;51.274;9.542;2022-12-18T11:30:21;17.57;;;8.87;;
16352;SDS011;8286;51.274;9.542;2022-12-18T11:32:51;21.43;;;11.37;;
16352;SDS011;8286;51.274;9.542;2022-12-18T11:35:19;26.37;;;9.83;;
16352;SDS011;8286;51.274;9.542;2022-12-18T11:37:59;23.33;;;10.93;;
16352;SDS011;8286;51.274;9.542;2022-12-18T11:40:30;26.40;;;10.80;;
16352;SDS011;8286;51.274;9.542;2022-12-18T11:43:02;24.97;;;11.03;;
16352;SDS011;8286;51.274;9.542;2022-12-18T11:45:33;23.43;;;11.20;;
16352;SDS011;8286;51.274;9.542;2022-12-18T11:48:03;18.90;;;10.00;;
16352;SDS011;8286;51.274;9.542;2022-12-18T11:50:33;21.00;;;10.30;;
16352;SDS011;8286;51.274;9.542;2022-12-18T11:53:09;18.53;;;9.60;;
16352;SDS011;8286;51.274;9.542;2022-12-18T11:55:38;26.13;;;11.50;;
16352;SDS011;8286;51.274;9.542;2022-12-18T11:58:10;21.63;;;10.70;;
16352;SDS011;8286;51.274;9.542;2022-12-18T12:00:39;20.03;;;10.23;;
16352;SDS011;8286;51.274;9.542;2022-12-18T12:03:21;24.00;;;10.33;;
16352;SDS011;8286;51.274;9.542;2022-12-18T12:06:03;22.57;;;10.97;;
16352;SDS011;8286;51.274;9.542;2022-12-18T12:08:39;20.97;;;10.23;;
16352;SDS011;8286;51.274;9.542;2022-12-18T12:11:16;19.73;;;11.10;;
16352;SDS011;8286;51.274;9.542;2022-12-18T12:13:48;25.43;;;11.20;;
16352;SDS011;8286;51.274;9.542;2022-12-18T12:16:21;21.53;;;9.87;;
16352;SDS011;8286;51.274;9.542;2022-12-18T12:18:59;20.73;;;11.80;;
16352;SDS011;8286;51.274;9.542;2022-12-18T12:21:34;21.30;;;10.37;;
16352;SDS011;8286;51.274;9.542;2022-12-18T12:24:05;23.83;;;10.97;;
16352;SDS011;8286;51.274;9.542;2022-12-18T12:26:42;22.57;;;11.53;;
16352;SDS011;8286;51.274;9.542;2022-12-18T12:29:15;22.17;;;11.27;;
16352;SDS011;8286;51.274;9.542;2022-12-18T12:31:52;25.63;;;11.93;;
16352;SDS011;8286;51.274;9.542;2022-12-18T12:34:29;18.53;;;10.13;;
16352;SDS011;8286;51.274;9.542;2022-12-18T12:37:05;21.83;;;10.90;;
16352;SDS011;8286;51.274;9.542;2022-12-18T12:39:38;24.53;;;10.37;;
16352;SDS011;8286;51.274;9.542;2022-12-18T12:42:09;22.60;;;10.60;;
16352;SDS011;8286;51.274;9.542;2022-12-18T12:44:56;24.30;;;12.03;;
16352;SDS011;8286;51.274;9.542;2022-12-18T12:47:25;23.83;;;10.83;;
16352;SDS011;8286;51.274;9.542;2022-12-18T12:49:56;23.97;;;11.93;;
16352;SDS011;8286;51.274;9.542;2022-12-18T12:52:26;28.93;;;12.77;;
16352;SDS011;8286;51.274;9.542;2022-12-18T12:54:56;30.57;;;12.63;;
16352;SDS011;8286;51.274;9.542;2022-12-18T12:57:23;22.67;;;11.67;;
16352;SDS011;8286;51.274;9.542;2022-12-18T12:59:56;22.90;;;10.70;;
16352;SDS011;8286;51.274;9.542;2022-12-18T13:02:28;20.80;;;10.90;;
16352;SDS011;8286;51.274;9.542;2022-12-18T13:05:01;27.37;;;12.17;;
16352;SDS011;8286;51.274;9.542;2022-12-18T13:07:32;21.90;;;11.50;;
16352;SDS011;8286;51.274;9.542;2022-12-18T13:10:14;22.97;;;11.07;;
16352;SDS011;8286;51.274;9.542;2022-12-18T13:12:53;23.30;;;11.07;;
16352;SDS011;8286;51.274;9.542;2022-12-18T13:15:24;19.50;;;9.97;;
16352;SDS011;8286;51.274;9.542;2022-12-18T13:18:14;22.60;;;10.30;;
16352;SDS011;8286;51.274;9.542;2022-12-18T13:20:44;24.00;;;9.50;;
16352;SDS011;8286;51.274;9.542;2022-12-18T13:25:58;19.30;;;9.77;;
16352;SDS011;8286;51.274;9.542;2022-12-18T13:34:24;21.47;;;9.23;;
16352;SDS011;8286;51.274;9.542;2022-12-18T13:36:54;20.27;;;9.90;;
16352;SDS011;8286;51.274;9.542;2022-12-18T13:39:23;24.00;;;10.00;;
16352;SDS011;8286;51.274;9.542;2022-12-18T13:41:51;25.47;;;10.17;;
16352;SDS011;8286;51.274;9.542;2022-12-18T13:44:26;14.27;;;8.83;;
16352;SDS011;8286;51.274;9.542;2022-12-18T13:46:57;19.30;;;9.17;;
16352;SDS011;8286;51.274;9.542;2022-12-18T13:49:25;19.60;;;9.77;;
16352;SDS011;8286;51.274;9.542;2022-12-18T13:51:56;20.27;;;9.70;;
16352;SDS011;8286;51.274;9.542;2022-12-18T13:54:30;24.27;;;9.83;;
16352;SDS011;8286;51.274;9.542;2022-12-18T13:56:59;17.37;;;9.30;;
16352;SDS011;8286;51.274;9.542;2022-12-18T13:59:26;16.77;;;9.73;;
16352;SDS011;8286;51.274;9.542;2022-12-18T14:02:00;19.23;;;9.13;;
16352;SDS011;8286;51.274;9.542;2022-12-18T14:04:32;21.70;;;9.57;;
16352;SDS011;8286;51.274;9.542;2022-12-18T14:07:03;22.43;;;10.47;;
16352;SDS011;8286;51.274;9.542;2022-12-18T14:09:31;23.87;;;10.00;;
16352;SDS011;8286;51.274;9.542;2022-12-18T14:12:01;19.03;;;8.77;;
16352;SDS011;8286;51.274;9.542;2022-12-18T14:14:43;17.97;;;9.93;;
16352;SDS011;8286;51.274;9.542;2022-12-18T14:17:11;23.77;;;9.87;;
16352;SDS011;8286;51.274;9.542;2022-12-18T14:19:40;21.90;;;10.33;;
16352;SDS011;8286;51.274;9.542;2022-12-18T14:22:13;26.30;;;11.73;;
16352;SDS011;8286;51.274;9.542;2022-12-18T14:24:41;33.40;;;13.70;;
16352;SDS011;8286;51.274;9.542;2022-12-18T14:27:12;26.63;;;12.77;;
16352;SDS011;8286;51.274;9.542;2022-12-18T14:29:47;23.53;;;12.80;;
16352;SDS011;8286;51.274;9.542;2022-12-18T14:32:14;21.10;;;12.00;;
16352;SDS011;8286;51.274;9.542;2022-12-18T14:34:42;28.23;;;12.83;;
16352;SDS011;8286;51.274;9.542;2022-12-18T14:37:09;33.70;;;15.53;;
16352;SDS011;8286;51.274;9.542;2022-12-18T14:39:38;27.83;;;14.83;;
16352;SDS011;8286;51.274;9.542;2022-12-18T14:42:05;32.40;;;14.53;;
16352;SDS011;8286;51.274;9.542;2022-12-18T14:44:32;35.10;;;15.50;;
16352;SDS011;8286;51.274;9.542;2022-12-18T14:46:58;41.23;;;17.23;;
16352;SDS011;8286;51.274;9.542;2022-12-18T14:49:26;27.90;;;14.57;;
16352;SDS011;8286;51.274;9.542;2022-12-18T14:51:55;30.03;;;13.30;;
16352;SDS011;8286;51.274;9.542;2022-12-18T14:54:25;29.97;;;12.20;;
16352;SDS011;8286;51.274;9.542;2022-12-18T14:56:55;27.03;;;13.63;;
16352;SDS011;8286;51.274;9.542;2022-12-18T14:59:25;31.43;;;14.37;;
16352;SDS011;8286;51.274;9.542;2022-12-18T15:01:56;25.17;;;11.27;;
16352;SDS011;8286;51.274;9.542;2022-12-18T15:04:25;28.63;;;12.70;;
16352;SDS011;8286;51.274;9.542;2022-12-18T15:07:12;33.37;;;13.00;;